Nearby METAR Reports

 

KCXY - Harrisburg, Pennsylvania, USA
Distance from station: E 9mi, 14km
Updated: Tue, 19-Jan-2021 6:56pm EST
Clear
Clear
 Wind from SW
Wind: SW 6 mph , 9 km/h
Temperature: 37°F , 3°C
Wind Chill: 32°F , 0°C
Dew Point: 18°F , -8°C
Humidity: 45%
Barometer: 30.13 inHg , 1020.3 hPa
Clouds: Clear
Visibility: 10 miles , 16 km
2021/01/19 23:56 KCXY 192356Z 22005KT 10SM CLR 03/M08 A3013 RMK AO2 SLP206 T00281083 10083 20022 53017
KMDT - Middletown, Pennsylvania, USA
Distance from station: E 13mi, 21km
Updated: Tue, 19-Jan-2021 6:56pm EST
Clear
Clear
 Wind from WNW
Wind: WNW 3 mph , 6 km/h
Temperature: 37°F , 3°C
Dew Point: 18°F , -8°C
Humidity: 45%
Barometer: 30.12 inHg , 1020 hPa
Clouds: Clear
Visibility: 10 miles , 16 km
2021/01/19 23:56 KMDT 192356Z 29003KT 10SM CLR 03/M08 A3012 RMK AO2 SLP203 T00331078 10078 20033 53017
 
KTHV - York, Pennsylvania, USA
Distance from station: SSE 22mi, 36km
Updated: Tue, 19-Jan-2021 6:53pm EST
Clear
Clear
 Wind from W
Wind: W 5 mph , 7 km/h
Temperature: 37°F , 3°C
Wind Chill: 33°F , 1°C
Dew Point: 16°F , -9°C
Humidity: 41%
Barometer: 30.13 inHg , 1020.3 hPa
Clouds: Clear
Visibility: 10 miles , 16 km
2021/01/19 23:53 KTHV 192353Z AUTO 26004KT 10SM CLR 03/M09 A3013 RMK AO2 SLP208 T00281089 10078 20011 51016
KMUI - Muir Aaf/Indiant, Pennsylvania, USA
Distance from station: ENE 27mi, 44km
Updated: Tue, 19-Jan-2021 6:56pm EST
Clear
Clear
 Wind from W
Wind: W 6 mph , 9 km/h
Temperature: 37°F , 3°C
Wind Chill: 32°F , 0°C
Dew Point: 18°F , -8°C
Humidity: 45%
Barometer: 30.11 inHg , 1019.6 hPa
Clouds: Clear
Visibility: 10 miles , 16 km
2021/01/19 23:56 KMUI 192356Z 26005KT 10SM CLR 03/M08 A3011 RMK AO2A SLP204 T00311083 10065 20010 52017
 
KLNS - Lancaster, Pennsylvania, USA
Distance from station: E 38mi, 62km
Updated: Tue, 19-Jan-2021 6:53pm EST
Clear
Clear
 Wind from WNW
Wind: WNW 5 mph , 7 km/h
Temperature: 36°F , 2°C
Wind Chill: 32°F , 0°C
Dew Point: 18°F , -8°C
Humidity: 48%
Barometer: 30.12 inHg , 1020 hPa
Clouds: Clear
Visibility: 10 miles , 16 km
2021/01/19 23:53 KLNS 192353Z 29004KT 10SM CLR 02/M08 A3012 RMK AO2 SLP202 T00221083 10078 20022 52015
KRYT - Fountain Dale, Pennsylvania, USA
Distance from station: SSW 40mi, 65km
Updated: Mon, 13-Nov-2017 7:53am EST
NOT Current
Mist, Overcast
Mist, Overcast
 Wind from calm
Wind: Calm
Temperature: 37°F , 3°C
Dew Point: 34°F , 1°C
Humidity: 87%
Barometer: 30.31 inHg , 1026.4 hPa
Summary: Mist
Clouds: Overcast
Visibility: 5 miles , 8 km
Cloud details: Overcast 700 ft
2017/11/13 12:53 KRYT 131253Z AUTO 00000KT 5SM BR OVC007 03/01 A3031 RMK AO2 SLP275 T00280011 TSNO $
 
KSEG - Selinsgrove, Pennsylvania, USA
Distance from station: N 42mi, 67km
Updated: Tue, 19-Jan-2021 6:53pm EST
Clear
Clear
 Wind from calm
Wind: Calm
Temperature: 36°F , 2°C
Dew Point: 19°F , -7°C
Humidity: 52%
Barometer: 30.11 inHg , 1019.6 hPa
Clouds: Clear
Visibility: 10 miles , 16 km
2021/01/19 23:53 KSEG 192353Z AUTO 00000KT 10SM CLR 02/M07 A3011 RMK AO2 SLP201 60000 T00171067 10056 20017 53016
KDMW - Carroll Cnty, Maryland, USA
Distance from station: S 43mi, 69km
Updated: Tue, 19-Jan-2021 7:35pm EST
Clear
Clear
 Wind from W
Wind: W 7 mph , 11 km/h
Temperature: 39°F , 4°C
Wind Chill: 34°F , 1°C
Dew Point: 19°F , -7°C
Humidity: 45%
Barometer: 30.14 inHg , 1020.7 hPa
Clouds: Clear
Visibility: 10 miles , 16 km
2021/01/20 00:35 KDMW 200035Z AUTO 27006KT 10SM CLR 04/M07 A3014 RMK AO2
 
KRSP - Camp David, Maryland, USA
Distance from station: SSW 46mi, 74km
Updated: Tue, 19-Jan-2021 6:54pm EST
Clear
Clear
 Wind from W
Wind: W 17 mph , 28 km/h, Gust: 26 mph , 43 km/h
Temperature: 34°F , 1°C
Wind Chill: 23°F , -5°C
Dew Point: 16°F , -9°C
Humidity: 48%
Barometer: 30.07 inHg , 1018.3 hPa
Clouds: Clear
Visibility: 10 miles , 16 km
2021/01/19 23:54 KRSP 192354Z AUTO 26015G23KT 240V300 10SM CLR 01/M09 A3007 RMK AO2 PK WND 27026/2259 SLP208 6//// T00111089 10050 20011 51012 TSNO PNO $